Aérodrome :
LOGIN :

S'inscrire | Disclaimer

   EN    FR    IT 

 










Légende :    VFR   VFR Marginal   IFR   IFR Intensif   IFR Très Intensif
Visi : 
Plafond : 
>= 8 km
>= 3000ft
5 à 8 km
1000 à 3000 ft
1500m à 5 km
500 à 1000 ft
800 à 1500m
200 à 500 ft
< 800m
< 200 ft
Symboles :   Orages  Brouillard  Fortes neiges  Fortes précipitations  Vent > 20 kt
SIGMETs :   Divers  Orages  Givrage  Turbulence  Onde Orograph.  Cendres Volcan.






- Altitude de l'aérodrome : 353 ft
- Code IATA : ZAG


LDZA - Zagreb Pleso

DERNIER METAR :
  • 280030Z 25009KT 9999 -RA SCT030 07/02 Q1001 NOSIG

METARs EXPIRÉS :
  • 280000Z 20007KT 180V260 9999 -RA FEW046 07/M00 Q1001 NOSIG
  • 272330Z 19008KT 160V260 9999 -RA FEW046 08/M02 Q1001 NOSIG
  • 272300Z 21009KT 180V260 9999 FEW046 07/M02 Q1001 NOSIG
  • 272230Z 19009KT 160V260 9999 BKN046 08/M02 Q1001 NOSIG
  • 272200Z 19012KT 160V260 CAVOK 08/M03 Q1001 NOSIG

TAF TAF LDZA
Valide du 28 à 00h jusqu'au 29 à 00h UTC


272325Z 2800/2900 22010KT 9999 SCT045 TX12/2813Z TN02/2823Z
PROB30
TEMPO 2802/2806 30015G25KT 4000 TSRA FEW030CB BKN040
BECMG 2804/2806 30010KT
TEMPO 2810/2816 30015G25KT
BECMG 2820/2822 VRB02KT
ATIS : +385 1 6-259-214



MET'MAP, la Météo Aéronautique d'un coup d'oeil ! - Copyright ORBIFLY Décembre 2007 - Disclaimer

ORBIFLY MET'MAP TEAM :

Programmation & Développement : Alexandra Zaïnal
Sur une idée originale de : Baudouin d'Aumeries
Assistance à la programmation : Marc-Olivier Méhu
Soutien technique & logistique : Manuel Goepfert

Contact : metmap@orbifly.com




SOURCES & CREDITS :

   NOAA